Time;durP1;ratioP1;P1;durP2;ratioP2;P2;SDS_P1;SDS_P2;PMS_P1;PMS_P2;Temp;Humidity;BMP_temperature;BMP_pressure;BME280_temperature;BME280_humidity;BME280_pressure;Samples;Min_cycle;Max_cycle;Signal;HPM_P1;HPM_P2
2020/12/22 00:00:04;;;;;;;23.63;13.82;;;;;;;4.61;87.94;100748.44;5021274;28;20073;-60
2020/12/22 00:02:31;;;;;;;24.60;14.10;;;;;;;4.62;87.95;100747.53;5023290;28;20139;-59
2020/12/22 00:04:58;;;;;;;22.48;13.00;;;;;;;4.61;87.68;100732.81;5005087;28;20406;-56
2020/12/22 00:07:24;;;;;;;25.35;14.38;;;;;;;4.66;87.43;100728.28;5024070;28;20069;-60
2020/12/22 00:09:51;;;;;;;22.70;14.32;;;;;;;4.68;88.14;100731.69;5018198;28;20092;-57
2020/12/22 00:12:18;;;;;;;23.02;13.82;;;;;;;4.67;88.10;100736.06;5029272;28;20046;-58
2020/12/22 00:14:44;;;;;;;23.38;14.13;;;;;;;4.70;87.55;100735.97;5029163;28;20072;-61
2020/12/22 00:17:11;;;;;;;22.00;13.60;;;;;;;4.71;87.33;100723.78;5031181;28;20647;-61
2020/12/22 00:19:38;;;;;;;22.20;14.00;;;;;;;4.66;87.55;100720.47;5029375;28;20065;-60
2020/12/22 00:22:05;;;;;;;26.40;14.98;;;;;;;4.66;87.76;100713.50;5016273;28;20061;-60
2020/12/22 00:24:32;;;;;;;22.90;12.75;;;;;;;4.75;87.48;100710.56;5011696;28;20457;-60
2020/12/22 00:26:59;;;;;;;24.02;14.05;;;;;;;4.74;87.35;100710.66;5018810;28;20053;-60
2020/12/22 00:29:25;;;;;;;24.00;13.20;;;;;;;4.76;87.72;100698.38;5022735;28;20057;-61
2020/12/22 00:31:55;;;;;;;27.70;14.82;;;;;;;4.80;87.10;100697.38;5020249;28;20140;-60
2020/12/22 00:34:22;;;;;;;22.58;14.00;;;;;;;4.79;87.30;100688.72;5017587;28;20458;-60
2020/12/22 00:36:49;;;;;;;23.00;14.25;;;;;;;4.84;87.67;100683.34;5013788;28;20046;-58
2020/12/22 00:39:15;;;;;;;24.65;14.40;;;;;;;4.86;87.48;100673.69;5017349;28;20140;-61
2020/12/22 00:41:43;;;;;;;27.80;15.38;;;;;;;4.86;87.29;100668.47;5015758;28;20057;-59
2020/12/22 00:44:09;;;;;;;24.88;14.50;;;;;;;4.85;87.22;100666.78;5016285;28;20556;-63
2020/12/22 00:46:36;;;;;;;25.33;14.13;;;;;;;4.92;89.43;100663.06;5005037;28;20153;-61
2020/12/22 00:49:03;;;;;;;24.33;14.80;;;;;;;5.04;87.16;100666.97;5025153;28;20053;-62
2020/12/22 00:51:29;;;;;;;25.42;14.93;;;;;;;4.97;86.68;100650.69;5010767;28;20053;-58
2020/12/22 00:53:56;;;;;;;22.02;14.15;;;;;;;4.93;87.32;100653.47;5023012;28;20046;-59
2020/12/22 00:56:23;;;;;;;23.73;14.27;;;;;;;4.95;86.93;100652.50;5025534;28;20053;-59
2020/12/22 00:58:50;;;;;;;24.35;14.45;;;;;;;5.03;86.37;100636.59;5020374;28;20430;-58
2020/12/22 01:01:17;;;;;;;20.23;13.45;;;;;;;4.95;86.50;100626.41;5021449;28;20152;-62
2020/12/22 01:03:45;;;;;;;24.40;15.15;;;;;;;5.00;86.51;100621.91;5020058;28;20623;-61
2020/12/22 01:06:12;;;;;;;24.33;14.75;;;;;;;4.96;86.49;100627.28;5014924;28;20049;-60
2020/12/22 01:08:39;;;;;;;30.92;16.27;;;;;;;4.97;87.11;100624.63;5020347;28;20107;-61
2020/12/22 01:11:05;;;;;;;25.65;15.43;;;;;;;5.01;86.52;100622.75;5017453;28;20054;-63
2020/12/22 01:13:32;;;;;;;24.00;13.65;;;;;;;4.94;87.27;100605.59;5011438;28;20046;-59
2020/12/22 01:15:59;;;;;;;25.00;13.63;;;;;;;4.98;86.93;100595.00;5018155;28;20518;-60
2020/12/22 01:18:41;;;;;;;20.17;13.45;;;;;;;5.02;86.72;100598.34;5010758;28;20061;-61
2020/12/22 01:21:07;;;;;;;26.05;14.65;;;;;;;5.03;86.61;100582.63;5015690;28;20138;-61
2020/12/22 01:23:35;;;;;;;26.45;15.00;;;;;;;5.05;86.39;100575.63;5008586;28;20058;-58
2020/12/22 01:26:03;;;;;;;24.08;13.70;;;;;;;5.03;86.69;100581.78;5006620;28;20069;-62
2020/12/22 01:28:30;;;;;;;24.25;14.82;;;;;;;5.09;87.15;100586.81;5021969;28;20095;-59
2020/12/22 01:30:57;;;;;;;25.98;15.35;;;;;;;5.10;85.98;100587.66;5022915;28;20045;-60
2020/12/22 01:33:23;;;;;;;27.38;15.10;;;;;;;5.13;87.09;100593.59;5018485;28;20155;-61
2020/12/22 01:35:50;;;;;;;26.63;15.68;;;;;;;5.10;86.54;100585.03;5012350;28;20085;-61
2020/12/22 01:38:17;;;;;;;24.00;14.02;;;;;;;5.12;86.71;100572.78;5021876;28;20064;-62
2020/12/22 01:40:49;;;;;;;25.02;14.43;;;;;;;5.18;86.72;100569.94;5022492;28;20104;-61
2020/12/22 01:43:17;;;;;;;24.42;15.00;;;;;;;5.24;86.41;100564.50;5013244;28;20596;-63
2020/12/22 01:45:43;;;;;;;27.17;14.57;;;;;;;5.22;85.80;100561.97;5024784;28;20134;-59
2020/12/22 01:48:11;;;;;;;24.70;15.38;;;;;;;5.20;86.44;100557.69;5002393;28;20052;-60
2020/12/22 01:50:37;;;;;;;27.92;15.60;;;;;;;5.24;86.66;100556.66;5025716;28;20085;-59
2020/12/22 01:53:04;;;;;;;23.00;14.73;;;;;;;5.20;86.52;100553.31;5025569;28;20104;-61
2020/12/22 01:55:31;;;;;;;22.13;14.02;;;;;;;5.27;86.40;100538.28;5031731;28;20057;-60
2020/12/22 01:57:58;;;;;;;24.13;14.77;;;;;;;5.35;86.15;100523.16;5016270;28;20061;-61
2020/12/22 02:00:24;;;;;;;26.40;15.80;;;;;;;5.30;85.62;100530.31;5035420;23;20065;-57
2020/12/22 02:02:52;;;;;;;21.75;13.88;;;;;;;5.36;86.20;100521.38;5021905;28;20064;-60
2020/12/22 02:05:19;;;;;;;22.98;14.60;;;;;;;5.41;85.66;100519.47;4992478;28;20081;-57
2020/12/22 02:07:45;;;;;;;26.20;14.95;;;;;;;5.38;85.55;100520.44;5012328;28;20050;-55
2020/12/22 02:10:12;;;;;;;23.23;14.63;;;;;;;5.44;85.26;100512.34;5002448;28;20518;-56
2020/12/22 02:12:40;;;;;;;27.02;15.73;;;;;;;5.44;85.82;100507.13;5005579;28;20054;-52
2020/12/22 02:15:09;;;;;;;29.02;15.77;;;;;;;5.49;85.68;100507.81;5005257;28;20391;-55
2020/12/22 02:17:35;;;;;;;29.80;16.00;;;;;;;5.45;86.01;100503.63;5003525;28;20057;-55
2020/12/22 02:20:04;;;;;;;25.42;15.23;;;;;;;5.33;86.61;100499.72;4990760;28;20058;-59
2020/12/22 02:22:31;;;;;;;22.95;14.27;;;;;;;5.19;87.96;100495.97;5002568;28;20518;-55
2020/12/22 02:24:58;;;;;;;26.77;15.05;;;;;;;5.25;88.37;100493.13;4996248;28;20057;-54
2020/12/22 02:27:25;;;;;;;28.27;15.82;;;;;;;5.12;89.91;100491.88;5005523;28;20050;-55
2020/12/22 02:29:51;;;;;;;31.13;16.48;;;;;;;5.16;89.82;100483.03;4995932;28;20050;-56
2020/12/22 02:32:18;;;;;;;24.02;15.70;;;;;;;5.16;90.34;100477.81;5010049;28;20481;-57
2020/12/22 02:34:45;;;;;;;30.67;16.65;;;;;;;5.12;90.25;100476.22;5001917;28;20054;-57
2020/12/22 02:37:12;;;;;;;27.00;16.15;;;;;;;5.07;91.46;100469.44;5001635;28;20205;-57
2020/12/22 02:39:38;;;;;;;30.98;17.17;;;;;;;5.12;91.29;100473.63;5001108;28;20148;-58
2020/12/22 02:42:06;;;;;;;31.10;16.95;;;;;;;5.14;91.19;100466.59;5005551;28;20060;-55
2020/12/22 02:44:33;;;;;;;28.25;17.65;;;;;;;5.07;92.26;100461.59;4981353;28;20062;-54
2020/12/22 02:46:59;;;;;;;29.67;17.38;;;;;;;5.02;91.86;100455.72;4998430;28;20059;-54
2020/12/22 02:49:42;;;;;;;27.88;17.25;;;;;;;5.03;92.66;100453.94;5003954;28;20058;-55
2020/12/22 02:52:10;;;;;;;36.65;18.27;;;;;;;5.16;92.82;100441.28;5008460;28;20582;-57
2020/12/22 02:54:37;;;;;;;28.48;17.25;;;;;;;5.13;93.29;100433.56;5001509;28;20058;-56
2020/12/22 02:57:04;;;;;;;30.75;17.38;;;;;;;5.08;93.80;100426.75;5009000;28;20062;-59
2020/12/22 02:59:30;;;;;;;29.45;16.50;;;;;;;5.16;94.52;100418.63;5003692;28;20051;-57
2020/12/22 03:01:57;;;;;;;32.50;18.48;;;;;;;5.08;94.31;100413.72;5008658;28;20064;-59
2020/12/22 03:04:24;;;;;;;30.58;17.42;;;;;;;5.08;94.83;100405.03;5007997;28;20080;-58
2020/12/22 03:06:50;;;;;;;26.17;15.95;;;;;;;5.12;95.20;100406.63;5006692;28;20070;-55
2020/12/22 03:09:17;;;;;;;29.83;17.95;;;;;;;5.17;95.43;100399.47;5007971;28;20525;-52
2020/12/22 03:11:44;;;;;;;28.10;17.40;;;;;;;5.10;95.86;100405.00;4998417;28;20050;-58
2020/12/22 03:14:11;;;;;;;32.58;18.38;;;;;;;5.14;96.12;100399.59;4995640;28;20078;-54
2020/12/22 03:16:37;;;;;;;31.10;18.15;;;;;;;5.20;96.12;100391.50;5004437;28;20064;-57
2020/12/22 03:19:04;;;;;;;29.73;17.15;;;;;;;5.11;97.31;100397.09;4978246;28;20058;-57
2020/12/22 03:21:31;;;;;;;28.38;16.88;;;;;;;5.12;97.05;100384.91;4999539;28;20167;-56
2020/12/22 03:23:57;;;;;;;29.88;18.58;;;;;;;5.03;97.98;100384.34;4999340;28;20047;-54
2020/12/22 03:26:24;;;;;;;33.63;19.08;;;;;;;5.06;98.38;100386.00;5004981;28;20570;-55
2020/12/22 03:28:51;;;;;;;30.83;18.17;;;;;;;5.15;98.17;100379.56;4991413;28;20050;-59
2020/12/22 03:31:18;;;;;;;35.15;20.15;;;;;;;5.08;98.98;100371.97;4999566;28;20057;-55
2020/12/22 03:33:44;;;;;;;31.48;19.38;;;;;;;5.12;99.32;100366.63;4993001;28;20051;-56
2020/12/22 03:36:11;;;;;;;36.65;20.58;;;;;;;5.06;99.48;100362.53;5005694;28;20054;-57
2020/12/22 03:38:38;;;;;;;32.78;18.58;;;;;;;5.08;99.98;100355.47;4984611;28;20133;-54
2020/12/22 03:41:05;;;;;;;33.75;19.25;;;;;;;5.11;100.00;100344.06;5007128;28;20515;-52
2020/12/22 03:43:32;;;;;;;33.55;19.63;;;;;;;5.17;100.00;100338.59;4984265;28;20104;-57
2020/12/22 03:45:59;;;;;;;37.15;20.38;;;;;;;5.20;100.00;100328.88;5007070;28;20161;-55
2020/12/22 03:48:25;;;;;;;33.40;18.73;;;;;;;5.29;100.00;100328.50;4996406;28;20459;-56
2020/12/22 03:50:53;;;;;;;29.92;18.00;;;;;;;5.26;100.00;100323.41;5008302;28;20476;-55
2020/12/22 03:53:20;;;;;;;33.13;19.80;;;;;;;5.24;100.00;100320.00;4998456;28;20065;-54
2020/12/22 03:55:46;;;;;;;36.17;19.67;;;;;;;5.36;100.00;100312.56;5008741;28;20474;-56
2020/12/22 03:58:13;;;;;;;32.95;18.15;;;;;;;5.33;100.00;100318.78;5002752;28;20073;-57
2020/12/22 04:00:40;;;;;;;35.13;18.48;;;;;;;5.40;100.00;100314.13;5002123;28;20077;-56
2020/12/22 04:03:06;;;;;;;30.58;17.95;;;;;;;5.40;100.00;100299.31;5001205;28;20069;-54
2020/12/22 04:05:33;;;;;;;36.70;20.88;;;;;;;5.33;100.00;100293.53;5009297;28;20078;-56
2020/12/22 04:08:00;;;;;;;37.28;18.23;;;;;;;5.34;100.00;100282.16;4982656;28;20083;-54
2020/12/22 04:10:26;;;;;;;32.78;19.30;;;;;;;5.29;100.00;100278.06;4991473;28;20049;-56
2020/12/22 04:12:54;;;;;;;37.08;20.77;;;;;;;5.30;100.00;100282.38;5007190;28;20080;-55
2020/12/22 04:15:21;;;;;;;34.67;19.25;;;;;;;5.33;100.00;100267.44;5007731;28;20117;-57
2020/12/22 04:17:47;;;;;;;32.38;19.27;;;;;;;5.42;100.00;100268.78;5007865;28;20545;-56
2020/12/22 04:20:14;;;;;;;33.85;19.48;;;;;;;5.45;100.00;100259.97;4994525;28;20046;-57
2020/12/22 04:22:41;;;;;;;30.45;19.10;;;;;;;5.40;100.00;100257.56;5002053;28;20159;-57
2020/12/22 04:25:07;;;;;;;32.47;18.42;;;;;;;5.46;100.00;100257.31;4995344;28;20054;-58
2020/12/22 04:27:34;;;;;;;31.85;18.27;;;;;;;5.49;100.00;100249.34;5003174;28;20141;-55
2020/12/22 04:30:01;;;;;;;31.85;18.13;;;;;;;5.49;100.00;100236.28;5007064;28;20054;-54
2020/12/22 04:32:28;;;;;;;28.70;16.95;;;;;;;5.51;100.00;100236.22;5007640;28;20049;-55
2020/12/22 04:34:55;;;;;;;27.63;16.98;;;;;;;5.55;100.00;100238.63;4994198;28;20701;-54
2020/12/22 04:37:22;;;;;;;35.47;18.25;;;;;;;5.55;100.00;100235.16;4994201;28;20054;-53
2020/12/22 04:39:49;;;;;;;29.92;17.75;;;;;;;5.55;100.00;100224.72;4978136;28;20583;-54
2020/12/22 04:42:19;;;;;;;29.48;18.48;;;;;;;5.62;100.00;100220.91;4985245;28;20054;-56
2020/12/22 04:44:48;;;;;;;34.38;18.13;;;;;;;5.64;100.00;100228.69;5000869;28;20758;-51
2020/12/22 04:47:17;;;;;;;33.13;17.73;;;;;;;5.65;100.00;100226.00;4985453;28;20137;-55
2020/12/22 04:49:46;;;;;;;28.05;17.52;;;;;;;5.73;100.00;100217.84;4998400;28;20055;-56
2020/12/22 04:52:13;;;;;;;29.73;18.13;;;;;;;5.63;100.00;100208.69;4990652;28;20057;-53
2020/12/22 04:54:40;;;;;;;30.90;17.48;;;;;;;5.66;100.00;100200.72;5002112;28;20140;-57
2020/12/22 04:57:07;;;;;;;29.27;17.98;;;;;;;5.71;100.00;100196.13;5004134;28;20054;-54
2020/12/22 04:59:39;;;;;;;31.48;17.63;;;;;;;5.74;100.00;100196.00;5000244;28;20043;-57
2020/12/22 05:02:06;;;;;;;28.02;16.67;;;;;;;5.74;100.00;100193.41;5004638;28;20142;-56
2020/12/22 05:04:34;;;;;;;34.25;18.02;;;;;;;5.79;100.00;100196.63;4989551;28;20049;-57
2020/12/22 05:07:02;;;;;;;28.38;16.25;;;;;;;5.90;100.00;100188.28;5006112;28;20058;-60
2020/12/22 05:09:30;;;;;;;30.15;17.58;;;;;;;5.91;100.00;100180.41;5002445;28;20050;-54
2020/12/22 05:11:57;;;;;;;24.48;14.93;;;;;;;5.91;100.00;100175.19;4999716;28;20058;-54
2020/12/22 05:14:28;;;;;;;29.77;16.30;;;;;;;5.99;100.00;100178.31;5002897;28;20054;-57
2020/12/22 05:16:55;;;;;;;26.17;15.25;;;;;;;5.96;100.00;100175.00;5007700;28;20117;-54
2020/12/22 05:19:22;;;;;;;29.05;15.73;;;;;;;6.09;100.00;100181.34;5006601;28;20053;-56
2020/12/22 05:21:52;;;;;;;26.15;16.10;;;;;;;6.07;100.00;100180.56;4999900;28;20542;-55
2020/12/22 05:24:18;;;;;;;23.70;15.15;;;;;;;6.13;100.00;100176.81;4977821;28;20686;-57
2020/12/22 05:26:45;;;;;;;25.08;15.02;;;;;;;6.11;100.00;100161.19;4978134;28;20050;-55
2020/12/22 05:29:18;;;;;;;22.77;14.88;;;;;;;6.20;100.00;100162.53;4998053;28;20050;-58
2020/12/22 05:31:50;;;;;;;21.17;14.88;;;;;;;6.19;100.00;100156.47;4994201;28;20100;-55
2020/12/22 05:34:17;;;;;;;24.38;15.25;;;;;;;6.18;100.00;100152.16;4996309;28;20750;-57
2020/12/22 05:36:45;;;;;;;26.13;15.43;;;;;;;6.22;100.00;100153.69;5003100;28;20050;-58
2020/12/22 05:39:14;;;;;;;24.63;13.88;;;;;;;6.27;100.00;100143.88;4995435;28;20060;-58
2020/12/22 05:41:41;;;;;;;28.23;15.25;;;;;;;6.24;100.00;100140.53;5007499;28;20053;-56
2020/12/22 05:44:08;;;;;;;25.60;14.77;;;;;;;6.23;100.00;100134.47;4997462;28;20042;-56
2020/12/22 05:46:40;;;;;;;24.80;14.73;;;;;;;6.28;100.00;100139.47;4978681;28;20426;-56
2020/12/22 05:49:10;;;;;;;22.75;14.85;;;;;;;6.28;100.00;100132.47;4979585;28;20474;-56
2020/12/22 05:51:47;;;;;;;22.98;14.32;;;;;;;6.37;100.00;100123.34;5006602;28;20134;-57
2020/12/22 05:54:15;;;;;;;22.98;13.80;;;;;;;6.39;100.00;100123.25;4976137;28;20134;-60
2020/12/22 05:56:43;;;;;;;23.95;14.43;;;;;;;6.40;100.00;100122.34;4992365;28;20072;-55
2020/12/22 05:59:17;;;;;;;21.08;13.68;;;;;;;6.44;100.00;100122.13;4983822;28;20050;-57
2020/12/22 06:01:44;;;;;;;23.52;14.75;;;;;;;6.44;100.00;100108.19;4999839;28;20073;-55
2020/12/22 06:04:12;;;;;;;23.13;13.02;;;;;;;6.62;100.00;100115.13;5001654;28;20049;-56
2020/12/22 06:06:38;;;;;;;23.52;12.80;;;;;;;6.55;100.00;100109.34;5005678;28;20058;-54
2020/12/22 06:09:06;;;;;;;22.77;13.75;;;;;;;6.59;100.00;100113.50;4992589;28;20070;-54
2020/12/22 06:11:34;;;;;;;27.85;13.25;;;;;;;6.59;100.00;100115.28;5009515;28;20057;-53
2020/12/22 06:14:04;;;;;;;28.98;13.63;;;;;;;6.66;100.00;100103.56;5004801;28;20511;-56
2020/12/22 06:16:31;;;;;;;19.02;12.80;;;;;;;6.67;100.00;100100.03;5010058;28;21069;-58
2020/12/22 06:18:57;;;;;;;17.75;12.45;;;;;;;6.69;100.00;100100.78;5009760;28;20073;-58
2020/12/22 06:21:24;;;;;;;19.05;13.18;;;;;;;6.68;100.00;100103.50;4969541;28;20062;-56
2020/12/22 06:23:51;;;;;;;20.30;12.55;;;;;;;6.79;100.00;100103.78;5008776;28;20036;-56
2020/12/22 06:26:18;;;;;;;20.35;11.77;;;;;;;6.78;100.00;100104.72;4996963;28;20057;-58
2020/12/22 06:28:45;;;;;;;21.00;13.45;;;;;;;6.73;100.00;100094.47;5009670;28;20399;-54
2020/12/22 06:31:21;;;;;;;19.13;12.68;;;;;;;6.80;100.00;100090.63;5008943;28;20065;-57
2020/12/22 06:33:52;;;;;;;17.25;11.77;;;;;;;6.84;100.00;100088.69;5009921;28;20524;-59
2020/12/22 06:36:19;;;;;;;19.60;12.45;;;;;;;6.85;100.00;100091.25;5010250;28;20053;-57
2020/12/22 06:38:50;;;;;;;18.23;11.55;;;;;;;6.90;100.00;100092.78;5008857;28;20049;-59
2020/12/22 06:41:35;;;;;;;19.05;12.18;;;;;;;6.94;100.00;100079.44;5009995;28;20068;-58
2020/12/22 06:44:27;;;;;;;20.23;12.20;;;;;;;6.95;100.00;100080.28;5001000;28;20047;-55
2020/12/22 06:46:57;;;;;;;17.35;11.45;;;;;;;7.10;100.00;100077.69;5008753;28;20065;-53
2020/12/22 06:49:49;;;;;;;14.38;9.88;;;;;;;7.08;100.00;100074.31;4988031;28;20056;-57
2020/12/22 06:52:35;;;;;;;14.10;9.73;;;;;;;7.16;100.00;100044.25;4991145;28;20042;-52
2020/12/22 06:55:06;;;;;;;17.42;10.38;;;;;;;7.13;100.00;100041.84;5008446;28;20561;-57
2020/12/22 06:57:43;;;;;;;14.32;9.57;;;;;;;7.12;100.00;100069.78;4998443;28;20057;-58
2020/12/22 07:00:22;;;;;;;16.60;11.00;;;;;;;7.11;100.00;100070.69;4991673;28;20053;-56
2020/12/22 07:03:09;;;;;;;14.63;10.27;;;;;;;7.19;100.00;100067.66;4969365;28;20057;-56
2020/12/22 07:05:44;;;;;;;13.20;8.77;;;;;;;7.33;100.00;100065.13;4998035;28;20058;-56
2020/12/22 07:08:15;;;;;;;13.13;8.50;;;;;;;7.39;100.00;100063.97;5006123;28;20062;-55
2020/12/22 07:10:44;;;;;;;11.25;7.82;;;;;;;7.45;100.00;100047.94;5010370;28;20068;-57
2020/12/22 07:13:13;;;;;;;11.93;8.20;;;;;;;7.51;100.00;100044.97;5006712;28;21056;-54
2020/12/22 07:15:44;;;;;;;12.05;7.50;;;;;;;7.44;100.00;100057.56;5009893;28;20494;-58
2020/12/22 07:18:15;;;;;;;10.40;7.50;;;;;;;7.53;100.00;100050.97;5004634;28;20136;-56
2020/12/22 07:20:42;;;;;;;9.45;7.35;;;;;;;7.66;100.00;100051.97;4991046;28;20605;-55
2020/12/22 07:23:13;;;;;;;10.45;7.03;;;;;;;7.60;100.00;100058.38;4998189;28;20053;-59
2020/12/22 07:25:41;;;;;;;11.35;7.30;;;;;;;7.68;100.00;100047.47;4991905;28;20521;-59
2020/12/22 07:28:14;;;;;;;10.45;7.22;;;;;;;7.78;100.00;100038.16;4984785;28;20058;-56
2020/12/22 07:30:40;;;;;;;10.10;7.22;;;;;;;7.70;100.00;100050.88;4995612;28;20133;-54
2020/12/22 07:33:07;;;;;;;7.38;6.18;;;;;;;7.81;100.00;100050.25;5001354;28;20077;-57
2020/12/22 07:35:34;;;;;;;9.60;7.22;;;;;;;7.80;100.00;100052.03;5006999;28;20092;-55
2020/12/22 07:38:05;;;;;;;9.05;6.18;;;;;;;7.96;100.00;100048.53;5006087;28;20140;-52
2020/12/22 07:40:36;;;;;;;8.82;6.30;;;;;;;8.00;100.00;100052.69;5002627;28;20057;-51
2020/12/22 07:43:04;;;;;;;7.68;5.45;;;;;;;8.01;100.00;100063.06;5003720;28;20081;-55
2020/12/22 07:45:31;;;;;;;9.13;5.38;;;;;;;8.12;100.00;100037.09;4991082;28;20553;-59
2020/12/22 07:47:57;;;;;;;6.63;5.63;;;;;;;8.16;100.00;100043.00;5005817;28;20045;-58
2020/12/22 07:50:24;;;;;;;7.18;5.07;;;;;;;8.22;100.00;100040.00;5008336;28;20518;-58
2020/12/22 07:52:58;;;;;;;6.35;5.35;;;;;;;8.25;100.00;100047.72;4997858;28;20062;-54
2020/12/22 07:55:25;;;;;;;10.45;5.47;;;;;;;8.19;100.00;100045.44;4997482;28;20158;-58
2020/12/22 07:57:52;;;;;;;6.63;5.05;;;;;;;8.31;100.00;100036.84;5004891;28;20054;-55
2020/12/22 08:00:20;;;;;;;6.93;4.40;;;;;;;8.31;100.00;100042.09;4970821;28;20534;-59
2020/12/22 08:02:47;;;;;;;4.88;4.15;;;;;;;8.34;100.00;100041.09;5031936;23;20145;-59
2020/12/22 08:05:14;;;;;;;6.57;5.00;;;;;;;8.31;100.00;100031.59;5014652;28;20050;-59
2020/12/22 08:07:44;;;;;;;6.07;4.20;;;;;;;8.36;100.00;100045.31;5014248;28;20440;-62
2020/12/22 08:10:12;;;;;;;6.75;3.92;;;;;;;8.46;100.00;100029.88;5015337;28;20049;-60
2020/12/22 08:12:39;;;;;;;5.40;3.78;;;;;;;8.43;100.00;100043.19;5014230;28;20049;-58
2020/12/22 08:15:07;;;;;;;5.35;3.97;;;;;;;8.44;100.00;100046.66;5018810;28;20345;-60
2020/12/22 08:17:37;;;;;;;6.95;3.45;;;;;;;8.50;100.00;100044.50;4991361;28;20259;-61
2020/12/22 08:20:03;;;;;;;5.00;3.53;;;;;;;8.55;100.00;100033.72;4985809;28;20068;-60
2020/12/22 08:22:30;;;;;;;3.67;3.22;;;;;;;8.58;100.00;100052.75;5004098;28;20651;-60
2020/12/22 08:25:00;;;;;;;4.03;3.00;;;;;;;8.71;100.00;100045.00;4990393;28;20080;-59
2020/12/22 08:27:26;;;;;;;5.95;3.83;;;;;;;8.66;100.00;100054.09;5015792;28;20136;-58
2020/12/22 08:29:53;;;;;;;5.20;3.08;;;;;;;8.58;100.00;100047.50;5022642;28;20069;-59
2020/12/22 08:32:22;;;;;;;4.97;3.00;;;;;;;8.59;100.00;100043.94;4993545;28;20140;-58
2020/12/22 08:34:52;;;;;;;4.13;2.92;;;;;;;8.65;100.00;100052.41;5004080;28;20041;-61
2020/12/22 08:37:26;;;;;;;7.38;3.28;;;;;;;8.72;100.00;100058.97;5018624;28;20541;-63
2020/12/22 08:39:53;;;;;;;5.03;2.97;;;;;;;8.78;100.00;100061.22;5002244;28;20678;-59
2020/12/22 08:42:21;;;;;;;4.18;2.17;;;;;;;8.82;100.00;100062.72;5019245;28;20058;-59
2020/12/22 08:44:51;;;;;;;4.53;2.72;;;;;;;8.75;100.00;100067.50;5016671;28;20164;-59
2020/12/22 08:47:19;;;;;;;4.10;2.72;;;;;;;8.79;100.00;100062.91;5025160;28;20052;-58
2020/12/22 08:49:46;;;;;;;4.90;2.75;;;;;;;8.75;100.00;100057.00;5002476;28;20514;-57
2020/12/22 08:52:15;;;;;;;2.88;2.05;;;;;;;8.90;100.00;100072.75;5025731;28;20056;-61
2020/12/22 08:54:44;;;;;;;3.63;2.28;;;;;;;8.98;100.00;100062.63;5020385;28;20049;-59
2020/12/22 08:57:12;;;;;;;3.90;2.35;;;;;;;9.03;100.00;100077.16;5033409;28;20053;-62
2020/12/22 08:59:39;;;;;;;3.13;2.10;;;;;;;9.07;100.00;100075.19;5020170;28;20053;-59
2020/12/22 09:02:06;;;;;;;3.80;2.05;;;;;;;9.08;100.00;100066.38;5026446;28;20062;-61
2020/12/22 09:04:33;;;;;;;5.35;2.63;;;;;;;9.10;100.00;100072.41;5013829;28;20061;-58
2020/12/22 09:07:00;;;;;;;3.92;2.35;;;;;;;9.08;100.00;100080.34;5018489;28;20153;-61
2020/12/22 09:09:30;;;;;;;4.43;2.30;;;;;;;9.13;100.00;100087.94;5002021;28;20061;-61
2020/12/22 09:12:04;;;;;;;3.08;2.08;;;;;;;9.12;100.00;100089.72;5016240;28;20387;-58
2020/12/22 09:14:45;;;;;;;3.85;2.45;;;;;;;9.11;100.00;100084.59;5013097;28;20145;-57
2020/12/22 09:17:13;;;;;;;2.67;1.77;;;;;;;9.18;100.00;100087.66;5023468;28;20072;-61
2020/12/22 09:19:48;;;;;;;4.05;1.85;;;;;;;9.28;100.00;100089.63;5015112;28;20095;-59
2020/12/22 09:22:22;;;;;;;7.03;1.48;;;;;;;9.31;100.00;100091.22;5019899;28;20063;-62
2020/12/22 09:25:00;;;;;;;5.28;1.45;;;;;;;9.38;100.00;100097.78;5009956;28;20046;-58
2020/12/22 09:27:37;;;;;;;3.00;1.35;;;;;;;9.37;100.00;100106.63;5019803;28;20050;-61
2020/12/22 09:30:15;;;;;;;2.22;1.40;;;;;;;9.40;100.00;100103.78;5025517;28;20092;-58
2020/12/22 09:32:45;;;;;;;1.90;1.45;;;;;;;9.52;100.00;100103.03;5024862;28;20064;-60
2020/12/22 09:35:12;;;;;;;1.85;1.35;;;;;;;9.52;100.00;100092.50;5002945;28;20056;-63
2020/12/22 09:37:39;;;;;;;2.35;1.30;;;;;;;9.59;100.00;100092.94;5025319;28;20467;-58
2020/12/22 09:40:06;;;;;;;2.10;1.10;;;;;;;9.63;100.00;100089.19;5022190;28;20053;-57
2020/12/22 09:42:33;;;;;;;4.32;1.40;;;;;;;9.65;100.00;100087.31;5024265;28;20326;-64
2020/12/22 09:44:59;;;;;;;6.28;2.65;;;;;;;9.74;100.00;100093.78;5021760;28;20045;-60
2020/12/22 09:47:26;;;;;;;2.03;1.35;;;;;;;9.78;100.00;100092.66;5013225;28;20054;-59
2020/12/22 09:49:53;;;;;;;2.40;1.27;;;;;;;9.84;100.00;100092.25;5022926;28;20140;-58
2020/12/22 09:52:20;;;;;;;3.70;1.20;;;;;;;9.86;100.00;100091.22;5002234;28;20049;-59
2020/12/22 09:54:47;;;;;;;4.00;1.60;;;;;;;9.83;100.00;100107.19;5023729;28;20053;-62
2020/12/22 09:57:13;;;;;;;4.47;1.25;;;;;;;9.81;100.00;100105.56;5026818;28;20119;-61
2020/12/22 09:59:40;;;;;;;1.70;1.20;;;;;;;9.86;100.00;100090.34;5020196;28;20049;-61
2020/12/22 10:02:07;;;;;;;1.95;1.23;;;;;;;9.95;100.00;100092.41;5025072;28;20060;-58
2020/12/22 10:04:37;;;;;;;2.25;1.52;;;;;;;9.93;100.00;100096.06;5021128;28;20507;-56
2020/12/22 10:07:04;;;;;;;2.20;1.45;;;;;;;9.89;100.00;100100.66;5025179;28;20068;-61
2020/12/22 10:09:31;;;;;;;3.53;1.40;;;;;;;9.91;100.00;100098.81;5021192;28;20057;-58
2020/12/22 10:11:58;;;;;;;4.05;1.17;;;;;;;9.92;100.00;100095.22;5021621;28;20141;-60
2020/12/22 10:14:25;;;;;;;2.25;1.20;;;;;;;9.92;100.00;100102.28;4997181;28;20185;-58
2020/12/22 10:16:51;;;;;;;4.13;1.10;;;;;;;9.86;100.00;100117.50;5016282;28;20058;-59
2020/12/22 10:19:18;;;;;;;6.68;1.50;;;;;;;10.04;100.00;100109.34;5021669;28;20156;-58
2020/12/22 10:21:45;;;;;;;4.18;1.40;;;;;;;10.07;100.00;100103.91;5024205;28;20068;-61
2020/12/22 10:24:12;;;;;;;1.80;1.05;;;;;;;10.05;100.00;100098.75;5019954;28;20068;-61
2020/12/22 10:26:38;;;;;;;4.55;1.25;;;;;;;10.11;100.00;100110.66;5025935;28;20087;-60
2020/12/22 10:29:05;;;;;;;10.65;1.60;;;;;;;9.95;100.00;100102.94;5017089;28;20057;-59
2020/12/22 10:31:32;;;;;;;3.72;1.20;;;;;;;10.04;100.00;100098.81;5008087;28;20064;-61
2020/12/22 10:33:59;;;;;;;5.47;1.48;;;;;;;10.04;100.00;100104.09;5000259;28;20133;-60
2020/12/22 10:36:26;;;;;;;4.60;1.30;;;;;;;10.07;100.00;100106.53;4988968;28;20061;-59
2020/12/22 10:38:56;;;;;;;3.75;1.35;;;;;;;10.03;100.00;100103.25;5023707;28;20053;-63
2020/12/22 10:41:23;;;;;;;2.28;1.30;;;;;;;10.13;100.00;100108.75;4992166;28;20073;-59
2020/12/22 10:43:51;;;;;;;2.05;1.55;;;;;;;10.19;100.00;100113.63;5025616;28;20522;-60
2020/12/22 10:46:17;;;;;;;4.20;1.48;;;;;;;10.24;100.00;100111.56;5024973;28;20529;-60
2020/12/22 10:48:46;;;;;;;4.75;1.40;;;;;;;10.24;100.00;100113.31;5006820;28;20136;-58
2020/12/22 10:51:13;;;;;;;5.72;1.40;;;;;;;10.23;100.00;100112.47;5007619;28;20046;-60
2020/12/22 10:53:40;;;;;;;2.50;1.45;;;;;;;10.18;100.00;100114.56;5031592;28;20049;-58
2020/12/22 10:56:11;;;;;;;3.75;1.50;;;;;;;10.24;100.00;100121.22;5019865;28;20050;-58
2020/12/22 10:58:38;;;;;;;2.72;1.27;;;;;;;10.47;100.00;100117.94;5023874;28;20529;-59
2020/12/22 11:01:06;;;;;;;3.85;1.50;;;;;;;10.51;100.00;100113.31;5028240;28;20502;-62
2020/12/22 11:03:33;;;;;;;2.00;1.20;;;;;;;10.45;100.00;100114.59;5029888;28;20579;-57
2020/12/22 11:06:26;;;;;;;2.25;1.25;;;;;;;10.49;100.00;100129.22;5025716;28;20049;-61
2020/12/22 11:08:53;;;;;;;2.40;1.17;;;;;;;10.47;100.00;100130.25;5019522;28;20538;-58
2020/12/22 11:11:20;;;;;;;2.05;1.33;;;;;;;10.66;100.00;100141.22;5023263;28;20191;-59
2020/12/22 11:13:46;;;;;;;1.98;1.13;;;;;;;10.71;100.00;100138.28;5022567;28;20058;-57
2020/12/22 11:16:14;;;;;;;1.80;1.15;;;;;;;10.87;100.00;100136.31;5031299;28;20080;-60
2020/12/22 11:18:40;;;;;;;3.58;1.15;;;;;;;10.86;100.00;100139.91;5017831;28;20061;-60
2020/12/22 11:21:10;;;;;;;3.50;1.10;;;;;;;10.80;100.00;100142.94;5024615;28;20136;-60